createdAt,value
2023-01-31T00:04:09.256Z,6.43
2023-01-31T00:14:09.995Z,6.47
2023-01-31T00:24:10.091Z,6.52
2023-01-31T00:34:10.178Z,6.54
2023-01-31T00:44:11.842Z,6.55
2023-01-31T00:54:12.581Z,6.56
2023-01-31T01:04:13.247Z,6.57
2023-01-31T01:14:13.213Z,6.57
2023-01-31T01:24:13.149Z,6.56
2023-01-31T01:34:13.325Z,6.56
2023-01-31T01:44:13.223Z,6.54
2023-01-31T01:54:13.212Z,6.50
2023-01-31T02:04:13.311Z,6.41
2023-01-31T02:14:13.256Z,6.27
2023-01-31T02:24:13.452Z,6.12
2023-01-31T02:34:13.393Z,6.03
2023-01-31T02:44:32.551Z,6.01
2023-01-31T02:54:34.573Z,6.03
2023-01-31T03:04:36.758Z,6.10
2023-01-31T03:14:37.420Z,6.14
2023-01-31T03:24:37.716Z,6.11
2023-01-31T03:34:38.552Z,6.02
2023-01-31T03:44:38.461Z,5.92
2023-01-31T03:54:38.963Z,5.75
2023-01-31T04:04:39.364Z,5.39
2023-01-31T04:14:39.362Z,5.00
2023-01-31T04:24:39.365Z,4.67
2023-01-31T04:34:39.429Z,4.42
2023-01-31T04:44:39.399Z,4.25
2023-01-31T04:54:39.421Z,4.19
2023-01-31T05:04:40.117Z,4.23
2023-01-31T05:14:40.570Z,4.31
2023-01-31T05:24:40.521Z,4.42
2023-01-31T05:34:40.522Z,4.61
2023-01-31T05:44:40.554Z,4.84
2023-01-31T05:54:40.540Z,5.07
2023-01-31T06:04:40.548Z,5.26
2023-01-31T06:14:40.574Z,5.41
2023-01-31T06:24:40.546Z,5.52
2023-01-31T06:34:40.678Z,5.60
2023-01-31T06:44:40.608Z,5.65
2023-01-31T06:54:41.151Z,5.70
2023-01-31T07:04:41.634Z,5.76
2023-01-31T07:14:42.208Z,5.83
2023-01-31T07:24:42.645Z,5.92
2023-01-31T07:34:42.670Z,6.04
2023-01-31T07:44:42.567Z,6.19
2023-01-31T07:54:42.596Z,6.47
2023-01-31T08:04:42.842Z,6.84
2023-01-31T08:14:42.650Z,7.11
2023-01-31T08:24:42.717Z,7.28
2023-01-31T08:34:43.472Z,7.41
2023-01-31T08:44:43.795Z,7.54
2023-01-31T08:54:43.705Z,7.60
2023-01-31T09:04:43.761Z,7.70
2023-01-31T09:14:43.795Z,7.78
2023-01-31T09:24:45.671Z,7.79
2023-01-31T09:34:47.066Z,7.74
2023-01-31T09:44:47.550Z,7.65
2023-01-31T09:54:47.775Z,7.57
2023-01-31T10:04:47.893Z,7.59
2023-01-31T10:14:49.690Z,7.72
2023-01-31T10:24:49.831Z,7.92
2023-01-31T10:34:49.938Z,7.99
2023-01-31T10:44:52.994Z,7.86
2023-01-31T10:54:52.845Z,7.88
2023-01-31T11:04:52.947Z,8.11
2023-01-31T11:14:54.010Z,8.48
2023-01-31T11:24:53.915Z,8.78
2023-01-31T11:34:53.979Z,8.80
2023-01-31T11:44:53.893Z,8.69
2023-01-31T11:54:53.937Z,8.59
2023-01-31T12:04:53.972Z,8.51
2023-01-31T12:14:53.960Z,8.48
2023-01-31T12:24:53.952Z,8.47
2023-01-31T12:35:00.789Z,8.45
2023-01-31T12:44:56.726Z,8.46
2023-01-31T12:54:56.975Z,8.44
2023-01-31T13:04:57.090Z,8.46
2023-01-31T13:14:57.117Z,8.49
2023-01-31T13:24:57.065Z,8.54
2023-01-31T13:34:57.136Z,8.58
2023-01-31T13:44:57.081Z,8.58
2023-01-31T13:55:00.247Z,8.51
2023-01-31T14:05:00.142Z,8.37
2023-01-31T14:15:00.108Z,8.21
2023-01-31T14:25:00.362Z,8.06
2023-01-31T14:35:00.170Z,7.94
2023-01-31T14:45:00.185Z,7.89
2023-01-31T14:55:00.177Z,7.89
2023-01-31T15:04:59.551Z,7.93
2023-01-31T15:15:03.437Z,8.00
2023-01-31T15:25:03.441Z,8.02
2023-01-31T15:35:03.215Z,8.01
2023-01-31T15:45:03.278Z,8.02
2023-01-31T15:55:04.457Z,8.04
2023-01-31T16:05:04.239Z,8.08
2023-01-31T16:15:04.330Z,8.13
2023-01-31T16:25:04.702Z,8.18
2023-01-31T16:35:05.277Z,8.24
2023-01-31T16:45:05.429Z,8.29
2023-01-31T16:55:05.266Z,8.33
2023-01-31T17:05:05.321Z,8.37
2023-01-31T17:15:05.435Z,8.39
2023-01-31T17:25:05.328Z,8.41
2023-01-31T17:35:05.456Z,8.41
2023-01-31T17:45:05.576Z,8.44
2023-01-31T17:55:05.446Z,8.49
2023-01-31T18:05:05.402Z,8.47
2023-01-31T18:15:05.419Z,8.32
2023-01-31T18:25:05.543Z,8.11
2023-01-31T18:35:05.584Z,7.86
2023-01-31T18:45:05.546Z,7.64
2023-01-31T18:55:05.458Z,7.42
2023-01-31T19:05:05.515Z,7.24
2023-01-31T19:15:05.535Z,7.23
2023-01-31T19:25:07.367Z,7.38
2023-01-31T19:35:07.480Z,7.56
2023-01-31T19:45:10.383Z,7.72
2023-01-31T19:55:10.597Z,7.88
2023-01-31T20:05:12.614Z,8.00
2023-01-31T20:15:12.650Z,8.04
2023-01-31T20:25:12.547Z,8.01
2023-01-31T20:35:12.617Z,7.96
2023-01-31T20:45:12.695Z,7.82
2023-01-31T20:55:12.924Z,7.53
2023-01-31T21:05:13.656Z,7.10
2023-01-31T21:15:13.700Z,6.61
2023-01-31T21:25:13.586Z,6.18
2023-01-31T21:35:14.329Z,5.85
2023-01-31T21:45:14.715Z,5.76
2023-01-31T21:55:16.368Z,5.94
2023-01-31T22:05:16.647Z,6.24
2023-01-31T22:15:16.760Z,6.56
2023-01-31T22:25:16.703Z,6.87
2023-01-31T22:35:16.761Z,7.14
2023-01-31T22:45:19.847Z,7.37
2023-01-31T22:55:19.755Z,7.54
2023-01-31T23:05:19.707Z,7.63
2023-01-31T23:15:19.875Z,7.65
2023-01-31T23:25:19.791Z,7.56
2023-01-31T23:35:19.756Z,7.39
2023-01-31T23:45:20.851Z,7.26
2023-01-31T23:55:22.261Z,7.16
